sensor_id;sensor_type;location;lat;lon;timestamp;pressure;altitude;pressure_sealevel;temperature;humidity
22333;BME280;11334;36.986;-121.936;2023-03-23T00:02:00;101087.09;;;18.34;63.02
22333;BME280;11334;36.986;-121.936;2023-03-23T00:04:26;101082.56;;;18.40;60.55
22333;BME280;11334;36.986;-121.936;2023-03-23T00:06:54;101088.03;;;18.60;59.87
22333;BME280;11334;36.986;-121.936;2023-03-23T00:09:21;101089.19;;;18.78;59.32
22333;BME280;11334;36.986;-121.936;2023-03-23T00:11:51;101088.63;;;18.95;60.78
22333;BME280;11334;36.986;-121.936;2023-03-23T00:14:18;101095.72;;;19.09;61.62
22333;BME280;11334;36.986;-121.936;2023-03-23T00:16:48;101098.00;;;19.18;62.36
22333;BME280;11334;36.986;-121.936;2023-03-23T00:19:17;101097.34;;;19.10;63.18
22333;BME280;11334;36.986;-121.936;2023-03-23T00:21:45;101089.25;;;18.97;63.66
22333;BME280;11334;36.986;-121.936;2023-03-23T00:24:14;101094.84;;;19.02;63.85
22333;BME280;11334;36.986;-121.936;2023-03-23T00:26:46;101102.13;;;19.14;62.70
22333;BME280;11334;36.986;-121.936;2023-03-23T00:29:14;101094.28;;;19.13;63.92
22333;BME280;11334;36.986;-121.936;2023-03-23T00:31:42;101098.22;;;19.17;63.63
22333;BME280;11334;36.986;-121.936;2023-03-23T00:34:14;101096.81;;;19.33;64.58
22333;BME280;11334;36.986;-121.936;2023-03-23T00:36:51;101091.22;;;19.35;63.91
22333;BME280;11334;36.986;-121.936;2023-03-23T00:39:23;101103.00;;;19.34;62.66
22333;BME280;11334;36.986;-121.936;2023-03-23T00:41:51;101088.03;;;18.99;63.87
22333;BME280;11334;36.986;-121.936;2023-03-23T00:44:19;101111.31;;;18.86;66.18
22333;BME280;11334;36.986;-121.936;2023-03-23T00:46:49;101108.97;;;18.77;65.66
22333;BME280;11334;36.986;-121.936;2023-03-23T00:49:18;101126.91;;;18.64;65.64
22333;BME280;11334;36.986;-121.936;2023-03-23T00:51:45;101135.19;;;18.08;65.51
22333;BME280;11334;36.986;-121.936;2023-03-23T00:54:12;101138.03;;;17.79;67.29
22333;BME280;11334;36.986;-121.936;2023-03-23T00:56:39;101151.56;;;17.51;69.32
22333;BME280;11334;36.986;-121.936;2023-03-23T00:59:05;101135.41;;;17.09;70.47
22333;BME280;11334;36.986;-121.936;2023-03-23T01:01:32;101157.50;;;16.97;72.30
22333;BME280;11334;36.986;-121.936;2023-03-23T01:03:59;101170.44;;;16.79;73.28
22333;BME280;11334;36.986;-121.936;2023-03-23T01:06:37;101162.88;;;16.69;75.22
22333;BME280;11334;36.986;-121.936;2023-03-23T01:09:08;101169.53;;;16.44;75.63
22333;BME280;11334;36.986;-121.936;2023-03-23T01:11:35;101169.69;;;16.14;78.16
22333;BME280;11334;36.986;-121.936;2023-03-23T01:14:03;101172.13;;;16.01;80.49
22333;BME280;11334;36.986;-121.936;2023-03-23T01:16:30;101172.28;;;16.00;80.79
22333;BME280;11334;36.986;-121.936;2023-03-23T01:18:56;101172.75;;;16.03;81.99
22333;BME280;11334;36.986;-121.936;2023-03-23T01:21:22;101169.25;;;16.03;82.41
22333;BME280;11334;36.986;-121.936;2023-03-23T01:23:51;101179.00;;;15.96;82.97
22333;BME280;11334;36.986;-121.936;2023-03-23T01:26:21;101189.06;;;15.94;83.35
22333;BME280;11334;36.986;-121.936;2023-03-23T01:28:47;101181.88;;;15.94;83.99
22333;BME280;11334;36.986;-121.936;2023-03-23T01:31:17;101190.41;;;15.90;84.64
22333;BME280;11334;36.986;-121.936;2023-03-23T01:33:44;101183.59;;;15.87;82.81
22333;BME280;11334;36.986;-121.936;2023-03-23T01:36:16;101186.44;;;15.86;82.94
22333;BME280;11334;36.986;-121.936;2023-03-23T01:38:44;101190.13;;;15.85;83.50
22333;BME280;11334;36.986;-121.936;2023-03-23T01:41:12;101200.16;;;15.83;84.13
22333;BME280;11334;36.986;-121.936;2023-03-23T01:43:56;101208.25;;;15.75;86.59
22333;BME280;11334;36.986;-121.936;2023-03-23T01:46:30;101204.91;;;15.73;85.97
22333;BME280;11334;36.986;-121.936;2023-03-23T01:48:58;101211.50;;;15.63;85.74
22333;BME280;11334;36.986;-121.936;2023-03-23T01:51:33;101219.81;;;15.68;86.70
22333;BME280;11334;36.986;-121.936;2023-03-23T01:54:04;101222.47;;;15.68;87.28
22333;BME280;11334;36.986;-121.936;2023-03-23T01:56:39;101225.38;;;15.58;87.62
22333;BME280;11334;36.986;-121.936;2023-03-23T01:59:08;101219.22;;;15.58;85.99
22333;BME280;11334;36.986;-121.936;2023-03-23T02:01:35;101227.69;;;15.61;86.63
22333;BME280;11334;36.986;-121.936;2023-03-23T02:04:05;101220.25;;;15.49;87.45
22333;BME280;11334;36.986;-121.936;2023-03-23T02:06:33;101243.59;;;15.55;88.16
22333;BME280;11334;36.986;-121.936;2023-03-23T02:08:59;101242.47;;;15.49;87.83
22333;BME280;11334;36.986;-121.936;2023-03-23T02:11:26;101247.50;;;15.45;88.59
22333;BME280;11334;36.986;-121.936;2023-03-23T02:13:53;101247.31;;;15.46;88.74
22333;BME280;11334;36.986;-121.936;2023-03-23T02:16:43;101246.19;;;15.41;87.82
22333;BME280;11334;36.986;-121.936;2023-03-23T02:19:41;101251.38;;;15.34;89.36
22333;BME280;11334;36.986;-121.936;2023-03-23T02:24:43;101256.78;;;15.26;88.03
22333;BME280;11334;36.986;-121.936;2023-03-23T02:27:36;101257.59;;;15.27;88.35
22333;BME280;11334;36.986;-121.936;2023-03-23T02:30:22;101260.09;;;15.28;87.80
22333;BME280;11334;36.986;-121.936;2023-03-23T02:35:28;101256.97;;;15.17;88.96
22333;BME280;11334;36.986;-121.936;2023-03-23T02:38:02;101264.97;;;15.17;88.73
22333;BME280;11334;36.986;-121.936;2023-03-23T02:40:36;101261.00;;;15.13;88.83
22333;BME280;11334;36.986;-121.936;2023-03-23T02:43:09;101273.34;;;15.14;88.43
22333;BME280;11334;36.986;-121.936;2023-03-23T02:45:37;101271.69;;;15.13;87.57
22333;BME280;11334;36.986;-121.936;2023-03-23T02:48:05;101269.03;;;15.13;86.35
22333;BME280;11334;36.986;-121.936;2023-03-23T02:50:33;101276.84;;;15.15;86.16
22333;BME280;11334;36.986;-121.936;2023-03-23T02:53:01;101278.53;;;15.16;86.13
22333;BME280;11334;36.986;-121.936;2023-03-23T02:55:29;101282.84;;;15.09;85.92
22333;BME280;11334;36.986;-121.936;2023-03-23T02:57:57;101277.03;;;15.05;86.38
22333;BME280;11334;36.986;-121.936;2023-03-23T03:00:27;101286.06;;;14.96;85.59
22333;BME280;11334;36.986;-121.936;2023-03-23T03:02:55;101290.72;;;14.94;85.91
22333;BME280;11334;36.986;-121.936;2023-03-23T03:10:42;101296.09;;;14.86;86.45
22333;BME280;11334;36.986;-121.936;2023-03-23T03:14:12;101301.25;;;14.88;86.62
22333;BME280;11334;36.986;-121.936;2023-03-23T03:16:46;101299.59;;;14.79;86.93
22333;BME280;11334;36.986;-121.936;2023-03-23T03:21:46;101287.47;;;14.61;86.53
22333;BME280;11334;36.986;-121.936;2023-03-23T03:24:18;101309.16;;;14.66;86.56
22333;BME280;11334;36.986;-121.936;2023-03-23T03:26:47;101317.97;;;14.66;86.90
22333;BME280;11334;36.986;-121.936;2023-03-23T03:29:20;101314.63;;;14.72;86.80
22333;BME280;11334;36.986;-121.936;2023-03-23T03:31:51;101325.13;;;14.74;86.21
22333;BME280;11334;36.986;-121.936;2023-03-23T03:34:21;101326.66;;;14.68;85.91
22333;BME280;11334;36.986;-121.936;2023-03-23T03:36:51;101336.97;;;14.71;84.94
22333;BME280;11334;36.986;-121.936;2023-03-23T03:39:18;101341.66;;;14.53;85.98
22333;BME280;11334;36.986;-121.936;2023-03-23T03:41:46;101335.81;;;14.42;85.98
22333;BME280;11334;36.986;-121.936;2023-03-23T03:44:13;101343.66;;;14.59;85.93
22333;BME280;11334;36.986;-121.936;2023-03-23T03:46:39;101349.81;;;14.52;86.46
22333;BME280;11334;36.986;-121.936;2023-03-23T03:49:09;101366.34;;;14.55;86.81
22333;BME280;11334;36.986;-121.936;2023-03-23T03:51:38;101371.00;;;14.46;87.85
22333;BME280;11334;36.986;-121.936;2023-03-23T03:54:05;101376.81;;;14.41;89.21
22333;BME280;11334;36.986;-121.936;2023-03-23T03:56:31;101372.66;;;14.39;88.48
22333;BME280;11334;36.986;-121.936;2023-03-23T03:59:02;101379.16;;;14.36;89.30
22333;BME280;11334;36.986;-121.936;2023-03-23T04:01:28;101367.28;;;14.23;86.78
22333;BME280;11334;36.986;-121.936;2023-03-23T04:03:55;101389.47;;;14.31;88.03
22333;BME280;11334;36.986;-121.936;2023-03-23T04:06:22;101393.31;;;14.29;88.20
22333;BME280;11334;36.986;-121.936;2023-03-23T04:08:49;101392.13;;;14.31;87.03
22333;BME280;11334;36.986;-121.936;2023-03-23T04:11:15;101392.13;;;14.23;87.81
22333;BME280;11334;36.986;-121.936;2023-03-23T04:13:42;101397.81;;;14.28;86.54
22333;BME280;11334;36.986;-121.936;2023-03-23T04:16:08;101405.13;;;14.26;87.85
22333;BME280;11334;36.986;-121.936;2023-03-23T04:18:35;101411.44;;;14.25;88.93
22333;BME280;11334;36.986;-121.936;2023-03-23T04:21:02;101420.44;;;14.32;87.54
22333;BME280;11334;36.986;-121.936;2023-03-23T04:23:30;101419.28;;;14.19;88.06
22333;BME280;11334;36.986;-121.936;2023-03-23T04:25:59;101427.13;;;14.28;85.62
22333;BME280;11334;36.986;-121.936;2023-03-23T04:28:26;101411.75;;;14.15;86.53
22333;BME280;11334;36.986;-121.936;2023-03-23T04:30:54;101433.75;;;14.17;86.60
22333;BME280;11334;36.986;-121.936;2023-03-23T04:33:21;101436.06;;;14.12;86.04
22333;BME280;11334;36.986;-121.936;2023-03-23T04:35:48;101429.31;;;13.92;87.33
22333;BME280;11334;36.986;-121.936;2023-03-23T04:38:16;101460.19;;;14.02;88.33
22333;BME280;11334;36.986;-121.936;2023-03-23T04:40:47;101458.00;;;13.98;88.57
22333;BME280;11334;36.986;-121.936;2023-03-23T04:43:13;101457.03;;;13.99;88.96
22333;BME280;11334;36.986;-121.936;2023-03-23T04:45:41;101472.34;;;14.05;87.73
22333;BME280;11334;36.986;-121.936;2023-03-23T04:48:11;101478.84;;;14.10;87.31
22333;BME280;11334;36.986;-121.936;2023-03-23T04:50:38;101479.88;;;14.09;87.17
22333;BME280;11334;36.986;-121.936;2023-03-23T04:53:04;101473.00;;;13.99;87.15
22333;BME280;11334;36.986;-121.936;2023-03-23T04:55:35;101485.00;;;14.03;84.84
22333;BME280;11334;36.986;-121.936;2023-03-23T04:58:06;101477.06;;;13.86;86.05
22333;BME280;11334;36.986;-121.936;2023-03-23T05:00:34;101497.13;;;13.97;84.74
22333;BME280;11334;36.986;-121.936;2023-03-23T05:03:01;101500.91;;;13.95;84.98
22333;BME280;11334;36.986;-121.936;2023-03-23T05:05:28;101501.38;;;13.90;86.20
22333;BME280;11334;36.986;-121.936;2023-03-23T05:07:59;101502.22;;;13.91;85.59
22333;BME280;11334;36.986;-121.936;2023-03-23T05:10:25;101502.91;;;13.93;85.85
22333;BME280;11334;36.986;-121.936;2023-03-23T05:12:53;101510.56;;;13.96;86.42
22333;BME280;11334;36.986;-121.936;2023-03-23T05:15:20;101508.47;;;13.99;85.63
22333;BME280;11334;36.986;-121.936;2023-03-23T05:17:47;101513.81;;;13.99;85.99
22333;BME280;11334;36.986;-121.936;2023-03-23T05:20:16;101508.22;;;13.93;86.38
22333;BME280;11334;36.986;-121.936;2023-03-23T05:22:46;101519.22;;;13.90;87.42
22333;BME280;11334;36.986;-121.936;2023-03-23T05:25:17;101513.16;;;13.80;88.21
22333;BME280;11334;36.986;-121.936;2023-03-23T05:27:48;101525.69;;;13.88;87.50
22333;BME280;11334;36.986;-121.936;2023-03-23T05:30:19;101511.53;;;13.87;87.17
22333;BME280;11334;36.986;-121.936;2023-03-23T05:32:45;101519.72;;;13.93;86.12
22333;BME280;11334;36.986;-121.936;2023-03-23T05:35:17;101528.09;;;13.98;84.97
22333;BME280;11334;36.986;-121.936;2023-03-23T05:37:44;101526.72;;;13.94;84.95
22333;BME280;11334;36.986;-121.936;2023-03-23T05:40:11;101539.44;;;14.00;85.04
22333;BME280;11334;36.986;-121.936;2023-03-23T05:42:38;101545.09;;;13.97;84.37
22333;BME280;11334;36.986;-121.936;2023-03-23T05:45:08;101536.03;;;13.90;85.22
22333;BME280;11334;36.986;-121.936;2023-03-23T05:47:37;101538.88;;;13.89;84.59
22333;BME280;11334;36.986;-121.936;2023-03-23T05:50:04;101556.19;;;13.93;83.96
22333;BME280;11334;36.986;-121.936;2023-03-23T05:52:32;101537.81;;;13.82;84.04
22333;BME280;11334;36.986;-121.936;2023-03-23T05:55:01;101559.84;;;13.92;84.32
22333;BME280;11334;36.986;-121.936;2023-03-23T05:57:29;101558.63;;;13.79;84.93
22333;BME280;11334;36.986;-121.936;2023-03-23T05:59:56;101565.25;;;13.75;85.25
22333;BME280;11334;36.986;-121.936;2023-03-23T06:02:24;101563.59;;;13.74;85.69
22333;BME280;11334;36.986;-121.936;2023-03-23T06:04:51;101570.34;;;13.68;85.19
22333;BME280;11334;36.986;-121.936;2023-03-23T06:07:24;101569.38;;;13.69;85.59
22333;BME280;11334;36.986;-121.936;2023-03-23T06:09:51;101574.69;;;13.69;85.66
22333;BME280;11334;36.986;-121.936;2023-03-23T06:12:18;101567.16;;;13.65;85.61
22333;BME280;11334;36.986;-121.936;2023-03-23T06:14:48;101581.13;;;13.59;86.13
22333;BME280;11334;36.986;-121.936;2023-03-23T06:17:17;101571.63;;;13.57;87.63
22333;BME280;11334;36.986;-121.936;2023-03-23T06:19:44;101573.97;;;13.59;88.27
22333;BME280;11334;36.986;-121.936;2023-03-23T06:22:12;101583.56;;;13.53;88.50
22333;BME280;11334;36.986;-121.936;2023-03-23T06:24:39;101574.56;;;13.54;88.36
22333;BME280;11334;36.986;-121.936;2023-03-23T06:27:05;101573.66;;;13.62;87.91
22333;BME280;11334;36.986;-121.936;2023-03-23T06:29:31;101587.28;;;13.59;88.23
22333;BME280;11334;36.986;-121.936;2023-03-23T06:32:01;101579.06;;;13.53;87.92
22333;BME280;11334;36.986;-121.936;2023-03-23T06:34:28;101580.25;;;13.58;87.67
22333;BME280;11334;36.986;-121.936;2023-03-23T06:36:56;101584.06;;;13.56;88.63
22333;BME280;11334;36.986;-121.936;2023-03-23T06:39:22;101585.06;;;13.55;89.41
22333;BME280;11334;36.986;-121.936;2023-03-23T06:41:50;101587.09;;;13.61;89.45
22333;BME280;11334;36.986;-121.936;2023-03-23T06:44:17;101592.44;;;13.61;89.37
22333;BME280;11334;36.986;-121.936;2023-03-23T06:46:43;101590.09;;;13.58;89.51
22333;BME280;11334;36.986;-121.936;2023-03-23T06:49:10;101594.44;;;13.59;89.49
22333;BME280;11334;36.986;-121.936;2023-03-23T06:51:36;101591.59;;;13.60;89.82
22333;BME280;11334;36.986;-121.936;2023-03-23T06:54:04;101594.56;;;13.57;88.31
22333;BME280;11334;36.986;-121.936;2023-03-23T06:56:31;101590.72;;;13.52;88.99
22333;BME280;11334;36.986;-121.936;2023-03-23T06:58:57;101596.88;;;13.53;88.13
22333;BME280;11334;36.986;-121.936;2023-03-23T07:01:23;101587.81;;;13.46;88.26
22333;BME280;11334;36.986;-121.936;2023-03-23T07:03:50;101592.47;;;13.44;89.03
22333;BME280;11334;36.986;-121.936;2023-03-23T07:06:16;101583.28;;;13.38;88.07
22333;BME280;11334;36.986;-121.936;2023-03-23T07:08:42;101602.72;;;13.39;88.95
22333;BME280;11334;36.986;-121.936;2023-03-23T07:11:09;101597.25;;;13.40;88.84
22333;BME280;11334;36.986;-121.936;2023-03-23T07:13:36;101597.34;;;13.31;88.43
22333;BME280;11334;36.986;-121.936;2023-03-23T07:16:05;101580.47;;;13.23;89.52
22333;BME280;11334;36.986;-121.936;2023-03-23T07:18:32;101609.81;;;13.30;89.81
22333;BME280;11334;36.986;-121.936;2023-03-23T07:20:59;101608.16;;;13.29;89.45
22333;BME280;11334;36.986;-121.936;2023-03-23T07:23:25;101606.91;;;13.24;89.77
22333;BME280;11334;36.986;-121.936;2023-03-23T07:25:52;101605.25;;;13.23;90.26
22333;BME280;11334;36.986;-121.936;2023-03-23T07:28:19;101596.59;;;13.04;90.29
22333;BME280;11334;36.986;-121.936;2023-03-23T07:30:45;101610.28;;;13.09;90.70
22333;BME280;11334;36.986;-121.936;2023-03-23T07:33:12;101614.31;;;13.13;90.52
22333;BME280;11334;36.986;-121.936;2023-03-23T07:35:38;101610.28;;;13.09;91.17
22333;BME280;11334;36.986;-121.936;2023-03-23T07:38:05;101613.25;;;13.06;90.75
22333;BME280;11334;36.986;-121.936;2023-03-23T07:40:32;101618.88;;;13.03;91.55
22333;BME280;11334;36.986;-121.936;2023-03-23T07:43:00;101624.19;;;13.03;91.81
22333;BME280;11334;36.986;-121.936;2023-03-23T07:45:27;101623.94;;;12.96;91.76
22333;BME280;11334;36.986;-121.936;2023-03-23T07:47:54;101613.69;;;13.01;91.03
22333;BME280;11334;36.986;-121.936;2023-03-23T07:50:21;101619.56;;;13.05;90.75
22333;BME280;11334;36.986;-121.936;2023-03-23T07:52:50;101614.38;;;13.03;90.63
22333;BME280;11334;36.986;-121.936;2023-03-23T07:55:17;101622.97;;;12.97;90.51
22333;BME280;11334;36.986;-121.936;2023-03-23T07:57:44;101618.69;;;13.04;90.51
22333;BME280;11334;36.986;-121.936;2023-03-23T08:00:11;101619.56;;;13.05;91.57
22333;BME280;11334;36.986;-121.936;2023-03-23T08:02:40;101618.44;;;13.07;92.51
22333;BME280;11334;36.986;-121.936;2023-03-23T08:05:07;101612.84;;;13.01;92.54
22333;BME280;11334;36.986;-121.936;2023-03-23T08:07:34;101622.06;;;13.06;91.10
22333;BME280;11334;36.986;-121.936;2023-03-23T08:10:01;101629.06;;;13.07;91.26
22333;BME280;11334;36.986;-121.936;2023-03-23T08:12:28;101622.28;;;13.13;90.69
22333;BME280;11334;36.986;-121.936;2023-03-23T08:14:54;101625.72;;;13.05;90.87
22333;BME280;11334;36.986;-121.936;2023-03-23T08:17:20;101639.72;;;13.07;91.49
22333;BME280;11334;36.986;-121.936;2023-03-23T08:19:47;101646.38;;;13.11;90.38
22333;BME280;11334;36.986;-121.936;2023-03-23T08:22:13;101646.38;;;13.11;90.52
22333;BME280;11334;36.986;-121.936;2023-03-23T08:24:40;101654.38;;;13.11;89.97
22333;BME280;11334;36.986;-121.936;2023-03-23T08:27:06;101654.22;;;13.13;90.39
22333;BME280;11334;36.986;-121.936;2023-03-23T08:29:33;101662.66;;;13.08;90.54
22333;BME280;11334;36.986;-121.936;2023-03-23T08:31:59;101647.97;;;13.04;90.66
22333;BME280;11334;36.986;-121.936;2023-03-23T08:34:25;101661.81;;;13.08;90.36
22333;BME280;11334;36.986;-121.936;2023-03-23T08:36:51;101653.97;;;13.06;90.22
22333;BME280;11334;36.986;-121.936;2023-03-23T08:39:18;101652.47;;;13.04;90.45
22333;BME280;11334;36.986;-121.936;2023-03-23T08:41:44;101670.38;;;13.02;90.85
22333;BME280;11334;36.986;-121.936;2023-03-23T08:44:11;101643.75;;;12.85;92.14
22333;BME280;11334;36.986;-121.936;2023-03-23T08:46:38;101664.84;;;12.95;92.52
22333;BME280;11334;36.986;-121.936;2023-03-23T08:49:05;101670.25;;;13.03;91.62
22333;BME280;11334;36.986;-121.936;2023-03-23T08:51:32;101674.03;;;13.01;91.18
22333;BME280;11334;36.986;-121.936;2023-03-23T08:53:58;101671.53;;;12.99;91.30
22333;BME280;11334;36.986;-121.936;2023-03-23T08:56:25;101678.38;;;13.02;90.06
22333;BME280;11334;36.986;-121.936;2023-03-23T08:58:51;101675.22;;;12.89;91.03
22333;BME280;11334;36.986;-121.936;2023-03-23T09:01:18;101681.34;;;12.99;90.76
22333;BME280;11334;36.986;-121.936;2023-03-23T09:03:44;101680.94;;;12.94;90.94
22333;BME280;11334;36.986;-121.936;2023-03-23T09:06:11;101690.31;;;12.98;90.81
22333;BME280;11334;36.986;-121.936;2023-03-23T09:08:39;101688.34;;;13.00;90.06
22333;BME280;11334;36.986;-121.936;2023-03-23T09:11:08;101682.38;;;12.89;90.48
22333;BME280;11334;36.986;-121.936;2023-03-23T09:13:36;101686.69;;;12.90;90.60
22333;BME280;11334;36.986;-121.936;2023-03-23T09:16:04;101690.09;;;12.82;90.59
22333;BME280;11334;36.986;-121.936;2023-03-23T09:18:31;101689.69;;;12.77;92.02
22333;BME280;11334;36.986;-121.936;2023-03-23T09:21:02;101687.59;;;12.81;92.55
22333;BME280;11334;36.986;-121.936;2023-03-23T09:23:29;101684.38;;;12.77;93.17
22333;BME280;11334;36.986;-121.936;2023-03-23T09:25:55;101679.94;;;12.78;93.89
22333;BME280;11334;36.986;-121.936;2023-03-23T09:28:22;101678.38;;;12.75;91.31
22333;BME280;11334;36.986;-121.936;2023-03-23T09:30:48;101686.78;;;12.71;93.43
22333;BME280;11334;36.986;-121.936;2023-03-23T09:33:15;101685.38;;;12.67;93.63
22333;BME280;11334;36.986;-121.936;2023-03-23T09:35:42;101680.50;;;12.62;94.07
22333;BME280;11334;36.986;-121.936;2023-03-23T09:38:09;101684.69;;;12.65;93.57
22333;BME280;11334;36.986;-121.936;2023-03-23T09:40:57;101684.69;;;12.65;92.41
22333;BME280;11334;36.986;-121.936;2023-03-23T09:43:44;101683.34;;;12.61;90.75
22333;BME280;11334;36.986;-121.936;2023-03-23T09:46:23;101682.50;;;12.61;90.48
22333;BME280;11334;36.986;-121.936;2023-03-23T09:48:59;101665.19;;;12.47;91.08
22333;BME280;11334;36.986;-121.936;2023-03-23T09:51:44;101673.88;;;12.49;91.33
22333;BME280;11334;36.986;-121.936;2023-03-23T09:56:49;101673.03;;;12.49;91.00
22333;BME280;11334;36.986;-121.936;2023-03-23T10:02:15;101678.25;;;12.41;91.82
22333;BME280;11334;36.986;-121.936;2023-03-23T10:04:50;101691.53;;;12.41;92.25
22333;BME280;11334;36.986;-121.936;2023-03-23T10:07:18;101684.13;;;12.35;92.06
22333;BME280;11334;36.986;-121.936;2023-03-23T10:09:51;101684.69;;;12.38;92.14
22333;BME280;11334;36.986;-121.936;2023-03-23T10:15:34;101681.06;;;12.30;92.01
22333;BME280;11334;36.986;-121.936;2023-03-23T10:20:59;101684.19;;;12.26;92.32
22333;BME280;11334;36.986;-121.936;2023-03-23T10:24:00;101681.53;;;12.16;93.34
22333;BME280;11334;36.986;-121.936;2023-03-23T10:29:36;101686.34;;;12.03;94.48
22333;BME280;11334;36.986;-121.936;2023-03-23T10:32:13;101684.22;;;12.07;92.87
22333;BME280;11334;36.986;-121.936;2023-03-23T10:34:55;101683.28;;;11.99;93.15
22333;BME280;11334;36.986;-121.936;2023-03-23T10:39:55;101684.09;;;11.90;93.45
22333;BME280;11334;36.986;-121.936;2023-03-23T10:42:27;101695.97;;;11.86;93.49
22333;BME280;11334;36.986;-121.936;2023-03-23T10:44:56;101693.63;;;11.83;93.54
22333;BME280;11334;36.986;-121.936;2023-03-23T10:47:23;101689.72;;;11.77;95.02
22333;BME280;11334;36.986;-121.936;2023-03-23T10:50:02;101700.22;;;11.79;94.01
22333;BME280;11334;36.986;-121.936;2023-03-23T10:52:35;101697.25;;;11.72;94.70
22333;BME280;11334;36.986;-121.936;2023-03-23T10:55:12;101700.22;;;11.69;94.44
22333;BME280;11334;36.986;-121.936;2023-03-23T10:57:45;101701.59;;;11.73;94.38
22333;BME280;11334;36.986;-121.936;2023-03-23T11:00:21;101704.94;;;11.66;94.24
22333;BME280;11334;36.986;-121.936;2023-03-23T11:03:04;101706.34;;;11.61;94.87
22333;BME280;11334;36.986;-121.936;2023-03-23T11:05:40;101712.94;;;11.57;95.10
22333;BME280;11334;36.986;-121.936;2023-03-23T11:08:24;101717.94;;;11.60;94.39
22333;BME280;11334;36.986;-121.936;2023-03-23T11:10:57;101718.78;;;11.51;94.69
22333;BME280;11334;36.986;-121.936;2023-03-23T11:13:30;101723.13;;;11.52;94.16
22333;BME280;11334;36.986;-121.936;2023-03-23T11:15:57;101718.34;;;11.46;94.93
22333;BME280;11334;36.986;-121.936;2023-03-23T11:21:06;101711.75;;;11.31;95.57
22333;BME280;11334;36.986;-121.936;2023-03-23T11:23:38;101727.41;;;11.43;95.47
22333;BME280;11334;36.986;-121.936;2023-03-23T11:26:21;101730.06;;;11.43;94.99
22333;BME280;11334;36.986;-121.936;2023-03-23T11:28:53;101734.09;;;11.38;95.17
22333;BME280;11334;36.986;-121.936;2023-03-23T11:31:33;101738.25;;;11.31;96.38
22333;BME280;11334;36.986;-121.936;2023-03-23T11:34:01;101744.00;;;11.27;96.36
22333;BME280;11334;36.986;-121.936;2023-03-23T11:36:37;101745.94;;;11.25;97.38
22333;BME280;11334;36.986;-121.936;2023-03-23T11:39:30;101741.03;;;11.11;98.38
22333;BME280;11334;36.986;-121.936;2023-03-23T11:41:59;101737.13;;;11.15;97.77
22333;BME280;11334;36.986;-121.936;2023-03-23T11:44:41;101744.78;;;11.08;97.68
22333;BME280;11334;36.986;-121.936;2023-03-23T11:47:40;101746.31;;;11.11;98.12
22333;BME280;11334;36.986;-121.936;2023-03-23T11:56:06;101764.03;;;11.01;98.38
22333;BME280;11334;36.986;-121.936;2023-03-23T11:58:34;101766.38;;;10.95;98.47
22333;BME280;11334;36.986;-121.936;2023-03-23T12:01:06;101780.16;;;10.89;98.77
22333;BME280;11334;36.986;-121.936;2023-03-23T12:06:34;101783.03;;;10.76;100.00
22333;BME280;11334;36.986;-121.936;2023-03-23T12:25:51;101819.72;;;10.51;100.00
22333;BME280;11334;36.986;-121.936;2023-03-23T12:31:52;101818.25;;;10.58;100.00
22333;BME280;11334;36.986;-121.936;2023-03-23T12:36:50;101829.09;;;10.55;100.00
22333;BME280;11334;36.986;-121.936;2023-03-23T12:39:57;101842.81;;;10.60;100.00
22333;BME280;11334;36.986;-121.936;2023-03-23T12:48:32;101851.69;;;10.59;100.00
22333;BME280;11334;36.986;-121.936;2023-03-23T12:51:24;101848.22;;;10.59;100.00
22333;BME280;11334;36.986;-121.936;2023-03-23T12:54:03;101850.16;;;10.57;100.00
22333;BME280;11334;36.986;-121.936;2023-03-23T12:56:59;101856.28;;;10.57;100.00
22333;BME280;11334;36.986;-121.936;2023-03-23T12:59:57;101862.75;;;10.64;100.00
22333;BME280;11334;36.986;-121.936;2023-03-23T13:02:41;101847.88;;;10.52;100.00
22333;BME280;11334;36.986;-121.936;2023-03-23T13:08:19;101862.31;;;10.59;100.00
22333;BME280;11334;36.986;-121.936;2023-03-23T13:10:49;101872.63;;;10.62;100.00
22333;BME280;11334;36.986;-121.936;2023-03-23T13:13:39;101877.81;;;10.64;100.00
22333;BME280;11334;36.986;-121.936;2023-03-23T13:16:27;101883.25;;;10.62;100.00
22333;BME280;11334;36.986;-121.936;2023-03-23T13:21:30;101874.97;;;10.56;100.00
22333;BME280;11334;36.986;-121.936;2023-03-23T13:24:06;101890.09;;;10.65;100.00
22333;BME280;11334;36.986;-121.936;2023-03-23T13:26:42;101898.50;;;10.70;100.00
22333;BME280;11334;36.986;-121.936;2023-03-23T13:29:20;101887.88;;;10.70;100.00
22333;BME280;11334;36.986;-121.936;2023-03-23T13:31:47;101899.94;;;10.73;100.00
22333;BME280;11334;36.986;-121.936;2023-03-23T13:34:26;101901.34;;;10.77;100.00
22333;BME280;11334;36.986;-121.936;2023-03-23T13:36:56;101897.38;;;10.72;100.00
22333;BME280;11334;36.986;-121.936;2023-03-23T13:39:32;101907.50;;;10.78;100.00
22333;BME280;11334;36.986;-121.936;2023-03-23T13:50:03;101933.34;;;11.05;100.00
22333;BME280;11334;36.986;-121.936;2023-03-23T14:03:13;101950.91;;;11.06;100.00
22333;BME280;11334;36.986;-121.936;2023-03-23T14:11:00;101949.38;;;11.24;100.00
22333;BME280;11334;36.986;-121.936;2023-03-23T14:18:50;101962.66;;;11.34;97.51
22333;BME280;11334;36.986;-121.936;2023-03-23T14:21:25;101956.47;;;11.24;98.06
22333;BME280;11334;36.986;-121.936;2023-03-23T14:23:52;101960.38;;;11.20;99.89